Tropical Cyclones
[Index]
Main Index Home Page Stock Weather Photos Extreme Storms Discussion Storm News and Storm Chasing Reports Tropical Cyclones / Hurricanes / Typhoons Weather Data and Links Wild Fires / Bushfires Weather Observation Techniques Weather Picture Catalogue Tornado Pictures and Reports Stock Video Footage and DVDs for sale
Season 1961-1962 Tropical Cyclone 196162_05 Track Map
Season 1961-1962 Summaries: [BoM-AU] [JTWC-AU] [JTWC-SIO] [JTWC-SPAC] [JTWC-SH]
<<- Previous TC | BoM 1961-1962 Season | Next TC ->>

click for intensity scale information  Lat/long Grid: Show Hide

 Date Labels: Show Hide

Bureau of Meteorology Tropical Cyclone Data

Name: 196162_05
Number: 347 / 196162_05

27 Jan 1962 23:00 UTC to 11 Feb 1962 01:00 UTC

    date/time    lat    long    hPa   cat  kts
1962-01-27 23   13.3   129.7    998                     
1962-01-28 23   14.0   129.0    998                     
1962-01-29 11   14.8   129.2    997                     
1962-01-29 23   15.5   129.4    997                     
1962-01-30 13   16.8   128.5                            
1962-01-31 01   16.9   127.2    996                     
1962-01-31 17   15.0   125.0    995    1                
1962-02-01 01   15.2   123.7    995    1                
1962-02-01 07   16.1   122.6    985    2                
1962-02-02 01   17.8   119.0    985    2                
1962-02-03 01   18.9   115.0    985    2                
1962-02-04 01   19.0   113.5    990    1                
1962-02-04 21   19.0   111.9    990    1                
1962-02-05 01   19.0   111.7    990    1                
1962-02-06 01   18.1   109.3    995    1                
1962-02-07 01   18.1   107.2    997                     
1962-02-07 08   18.7   106.0    997                     
1962-02-08 01   20.2   104.3    997                     
1962-02-09 01   22.0   103.0    998                     
1962-02-10 01   23.8   102.9   1000                     
1962-02-10 11   24.3   103.2   1002                     
1962-02-11 01   25.0   105.0   1005                     
Winds are 10-min average.

Tropical cyclone tracks developed by Michael Bath using data from the Bureau of Meteorology and Google Maps.


[Australian Severe Weather index] [Copyright Notice] [Email Contacts] [Search This Site] [Privacy Policy]
Document: tropical_cyclone_196162_05.htm Updated: 30 May 2013